sensor_id;sensor_type;location;lat;lon;timestamp;P1;durP1;ratioP1;P2;durP2;ratioP2
47401;SDS011;33155;48.370;-3.750;2022-09-13T06:02:01;0.60;;;0.60;;
47401;SDS011;33155;48.370;-3.750;2022-09-13T06:04:27;1.15;;;0.60;;
47401;SDS011;33155;48.370;-3.750;2022-09-13T06:06:53;1.15;;;0.70;;
47401;SDS011;33155;48.370;-3.750;2022-09-13T06:09:18;0.98;;;0.70;;
47401;SDS011;33155;48.370;-3.750;2022-09-13T06:11:44;1.10;;;0.70;;
47401;SDS011;33155;48.370;-3.750;2022-09-13T06:14:09;1.00;;;0.88;;
47401;SDS011;33155;48.370;-3.750;2022-09-13T06:16:35;1.13;;;0.82;;
47401;SDS011;33155;48.370;-3.750;2022-09-13T06:19:00;1.00;;;0.70;;
47401;SDS011;33155;48.370;-3.750;2022-09-13T06:21:26;0.70;;;0.70;;
47401;SDS011;33155;48.370;-3.750;2022-09-13T06:23:52;1.33;;;0.82;;
47401;SDS011;33155;48.370;-3.750;2022-09-13T06:26:19;0.77;;;0.50;;
47401;SDS011;33155;48.370;-3.750;2022-09-13T06:28:46;0.60;;;0.60;;
47401;SDS011;33155;48.370;-3.750;2022-09-13T06:31:16;1.15;;;0.77;;
47401;SDS011;33155;48.370;-3.750;2022-09-13T06:33:43;1.35;;;0.63;;
47401;SDS011;33155;48.370;-3.750;2022-09-13T06:36:09;0.80;;;0.70;;
47401;SDS011;33155;48.370;-3.750;2022-09-13T06:38:37;1.02;;;0.70;;
47401;SDS011;33155;48.370;-3.750;2022-09-13T06:41:07;0.93;;;0.70;;
47401;SDS011;33155;48.370;-3.750;2022-09-13T06:43:34;0.90;;;0.85;;
47401;SDS011;33155;48.370;-3.750;2022-09-13T06:48:37;1.40;;;0.70;;
47401;SDS011;33155;48.370;-3.750;2022-09-13T06:51:04;1.33;;;0.90;;
47401;SDS011;33155;48.370;-3.750;2022-09-13T06:53:32;0.68;;;0.68;;
47401;SDS011;33155;48.370;-3.750;2022-09-13T06:56:03;0.80;;;0.80;;
47401;SDS011;33155;48.370;-3.750;2022-09-13T06:58:28;1.92;;;1.20;;
47401;SDS011;33155;48.370;-3.750;2022-09-13T07:01:03;1.70;;;0.50;;
47401;SDS011;33155;48.370;-3.750;2022-09-13T07:03:35;0.98;;;0.70;;
47401;SDS011;33155;48.370;-3.750;2022-09-13T07:06:06;0.60;;;0.60;;
47401;SDS011;33155;48.370;-3.750;2022-09-13T07:08:35;0.63;;;0.63;;
47401;SDS011;33155;48.370;-3.750;2022-09-13T07:11:01;1.42;;;0.90;;
47401;SDS011;33155;48.370;-3.750;2022-09-13T07:13:27;0.90;;;0.80;;
47401;SDS011;33155;48.370;-3.750;2022-09-13T07:15:52;0.80;;;0.55;;
47401;SDS011;33155;48.370;-3.750;2022-09-13T07:18:18;0.75;;;0.70;;
47401;SDS011;33155;48.370;-3.750;2022-09-13T07:20:44;1.17;;;0.75;;
47401;SDS011;33155;48.370;-3.750;2022-09-13T07:23:09;0.60;;;0.60;;
47401;SDS011;33155;48.370;-3.750;2022-09-13T07:25:34;2.03;;;0.85;;
47401;SDS011;33155;48.370;-3.750;2022-09-13T07:28:00;0.68;;;0.50;;
47401;SDS011;33155;48.370;-3.750;2022-09-13T07:30:25;0.82;;;0.73;;
47401;SDS011;33155;48.370;-3.750;2022-09-13T07:32:51;0.77;;;0.57;;
47401;SDS011;33155;48.370;-3.750;2022-09-13T07:35:17;0.82;;;0.70;;
47401;SDS011;33155;48.370;-3.750;2022-09-13T07:37:42;0.65;;;0.50;;
47401;SDS011;33155;48.370;-3.750;2022-09-13T07:40:10;0.70;;;0.70;;
47401;SDS011;33155;48.370;-3.750;2022-09-13T07:42:36;0.98;;;0.70;;
47401;SDS011;33155;48.370;-3.750;2022-09-13T07:45:01;1.15;;;0.82;;
47401;SDS011;33155;48.370;-3.750;2022-09-13T07:47:27;1.75;;;0.68;;
47401;SDS011;33155;48.370;-3.750;2022-09-13T07:49:52;0.50;;;0.50;;
47401;SDS011;33155;48.370;-3.750;2022-09-13T07:52:18;0.88;;;0.70;;
47401;SDS011;33155;48.370;-3.750;2022-09-13T07:54:43;0.80;;;0.70;;
47401;SDS011;33155;48.370;-3.750;2022-09-13T07:57:09;0.60;;;0.60;;
47401;SDS011;33155;48.370;-3.750;2022-09-13T07:59:34;0.80;;;0.65;;
47401;SDS011;33155;48.370;-3.750;2022-09-13T08:01:59;1.98;;;1.20;;
47401;SDS011;33155;48.370;-3.750;2022-09-13T08:04:25;0.63;;;0.63;;
47401;SDS011;33155;48.370;-3.750;2022-09-13T08:06:50;0.63;;;0.60;;
47401;SDS011;33155;48.370;-3.750;2022-09-13T08:09:16;1.45;;;0.70;;
47401;SDS011;33155;48.370;-3.750;2022-09-13T08:11:43;0.90;;;0.80;;
47401;SDS011;33155;48.370;-3.750;2022-09-13T08:14:19;0.63;;;0.50;;
47401;SDS011;33155;48.370;-3.750;2022-09-13T08:16:46;1.00;;;0.70;;
47401;SDS011;33155;48.370;-3.750;2022-09-13T08:19:13;0.63;;;0.63;;
47401;SDS011;33155;48.370;-3.750;2022-09-13T08:21:40;1.30;;;1.17;;
47401;SDS011;33155;48.370;-3.750;2022-09-13T08:24:07;0.65;;;0.60;;
47401;SDS011;33155;48.370;-3.750;2022-09-13T08:26:34;0.80;;;0.60;;
47401;SDS011;33155;48.370;-3.750;2022-09-13T08:29:01;0.63;;;0.60;;
47401;SDS011;33155;48.370;-3.750;2022-09-13T08:31:28;1.05;;;0.52;;
47401;SDS011;33155;48.370;-3.750;2022-09-13T08:33:54;0.73;;;0.50;;
47401;SDS011;33155;48.370;-3.750;2022-09-13T08:36:20;0.77;;;0.77;;
47401;SDS011;33155;48.370;-3.750;2022-09-13T08:38:58;0.70;;;0.70;;
47401;SDS011;33155;48.370;-3.750;2022-09-13T08:46:27;0.93;;;0.60;;
47401;SDS011;33155;48.370;-3.750;2022-09-13T08:48:55;0.80;;;0.63;;
47401;SDS011;33155;48.370;-3.750;2022-09-13T08:53:52;1.40;;;0.70;;
47401;SDS011;33155;48.370;-3.750;2022-09-13T08:56:22;0.98;;;0.70;;
47401;SDS011;33155;48.370;-3.750;2022-09-13T09:07:46;0.50;;;0.50;;
47401;SDS011;33155;48.370;-3.750;2022-09-13T09:10:29;1.42;;;0.60;;
47401;SDS011;33155;48.370;-3.750;2022-09-13T09:13:12;1.88;;;0.60;;
47401;SDS011;33155;48.370;-3.750;2022-09-13T09:15:48;0.50;;;0.50;;
47401;SDS011;33155;48.370;-3.750;2022-09-13T09:20:49;0.90;;;0.60;;
47401;SDS011;33155;48.370;-3.750;2022-09-13T09:23:21;2.72;;;1.10;;
47401;SDS011;33155;48.370;-3.750;2022-09-13T09:25:55;0.65;;;0.60;;
47401;SDS011;33155;48.370;-3.750;2022-09-13T09:28:22;0.93;;;0.80;;
47401;SDS011;33155;48.370;-3.750;2022-09-13T09:30:59;1.20;;;0.90;;
47401;SDS011;33155;48.370;-3.750;2022-09-13T09:33:50;1.00;;;0.60;;
47401;SDS011;33155;48.370;-3.750;2022-09-13T09:37:10;1.15;;;0.77;;
47401;SDS011;33155;48.370;-3.750;2022-09-13T09:39:40;1.13;;;0.70;;
47401;SDS011;33155;48.370;-3.750;2022-09-13T09:42:25;1.20;;;0.80;;
47401;SDS011;33155;48.370;-3.750;2022-09-13T09:44:54;1.77;;;0.88;;
47401;SDS011;33155;48.370;-3.750;2022-09-13T09:47:22;1.00;;;0.73;;
47401;SDS011;33155;48.370;-3.750;2022-09-13T09:50:03;1.25;;;0.80;;
47401;SDS011;33155;48.370;-3.750;2022-09-13T09:58:00;1.33;;;1.00;;
47401;SDS011;33155;48.370;-3.750;2022-09-13T10:00:29;1.77;;;1.15;;
47401;SDS011;33155;48.370;-3.750;2022-09-13T10:03:17;1.35;;;1.10;;
47401;SDS011;33155;48.370;-3.750;2022-09-13T10:05:48;1.48;;;0.90;;
47401;SDS011;33155;48.370;-3.750;2022-09-13T10:08:27;1.60;;;1.00;;
47401;SDS011;33155;48.370;-3.750;2022-09-13T10:10:57;1.00;;;0.90;;
47401;SDS011;33155;48.370;-3.750;2022-09-13T10:13:26;1.48;;;0.93;;
47401;SDS011;33155;48.370;-3.750;2022-09-13T10:15:53;1.05;;;0.82;;
47401;SDS011;33155;48.370;-3.750;2022-09-13T10:18:22;0.73;;;0.73;;
47401;SDS011;33155;48.370;-3.750;2022-09-13T10:21:00;1.35;;;1.25;;
47401;SDS011;33155;48.370;-3.750;2022-09-13T10:23:46;4.03;;;1.60;;
47401;SDS011;33155;48.370;-3.750;2022-09-13T10:28:45;1.52;;;1.17;;
47401;SDS011;33155;48.370;-3.750;2022-09-13T10:31:12;1.20;;;1.10;;
47401;SDS011;33155;48.370;-3.750;2022-09-13T10:36:24;1.80;;;1.30;;
47401;SDS011;33155;48.370;-3.750;2022-09-13T10:39:04;1.25;;;1.15;;
47401;SDS011;33155;48.370;-3.750;2022-09-13T10:41:35;1.13;;;1.02;;
47401;SDS011;33155;48.370;-3.750;2022-09-13T10:44:08;1.58;;;0.98;;
47401;SDS011;33155;48.370;-3.750;2022-09-13T10:46:50;2.70;;;1.15;;
47401;SDS011;33155;48.370;-3.750;2022-09-13T10:49:35;1.65;;;1.33;;
47401;SDS011;33155;48.370;-3.750;2022-09-13T10:52:40;1.65;;;1.30;;
47401;SDS011;33155;48.370;-3.750;2022-09-13T10:57:51;1.45;;;1.20;;
47401;SDS011;33155;48.370;-3.750;2022-09-13T11:13:42;2.08;;;1.30;;
47401;SDS011;33155;48.370;-3.750;2022-09-13T14:32:22;2.17;;;1.63;;
47401;SDS011;33155;48.370;-3.750;2022-09-13T14:34:59;2.10;;;1.52;;
47401;SDS011;33155;48.370;-3.750;2022-09-13T14:37:27;4.90;;;2.28;;
47401;SDS011;33155;48.370;-3.750;2022-09-13T14:40:17;3.40;;;2.63;;
47401;SDS011;33155;48.370;-3.750;2022-09-13T14:42:45;4.50;;;2.72;;
47401;SDS011;33155;48.370;-3.750;2022-09-13T14:45:12;4.10;;;2.95;;
47401;SDS011;33155;48.370;-3.750;2022-09-13T14:50:17;4.55;;;3.00;;
47401;SDS011;33155;48.370;-3.750;2022-09-13T14:52:49;4.50;;;3.42;;
47401;SDS011;33155;48.370;-3.750;2022-09-13T14:55:19;5.70;;;2.85;;
47401;SDS011;33155;48.370;-3.750;2022-09-13T14:57:48;3.50;;;3.13;;
47401;SDS011;33155;48.370;-3.750;2022-09-13T15:00:22;3.78;;;3.33;;
47401;SDS011;33155;48.370;-3.750;2022-09-13T15:05:17;6.60;;;3.80;;
47401;SDS011;33155;48.370;-3.750;2022-09-13T15:07:44;7.10;;;4.22;;
47401;SDS011;33155;48.370;-3.750;2022-09-13T15:12:52;5.88;;;3.58;;
47401;SDS011;33155;48.370;-3.750;2022-09-13T15:18:05;3.92;;;3.50;;
47401;SDS011;33155;48.370;-3.750;2022-09-13T15:20:53;4.22;;;2.88;;
47401;SDS011;33155;48.370;-3.750;2022-09-13T15:31:07;4.18;;;3.60;;
47401;SDS011;33155;48.370;-3.750;2022-09-13T15:33:34;3.97;;;3.35;;
47401;SDS011;33155;48.370;-3.750;2022-09-13T15:39:01;3.22;;;2.80;;
47401;SDS011;33155;48.370;-3.750;2022-09-13T15:41:30;4.05;;;2.83;;
47401;SDS011;33155;48.370;-3.750;2022-09-13T15:44:00;3.35;;;3.05;;
47401;SDS011;33155;48.370;-3.750;2022-09-13T15:46:26;3.95;;;3.15;;
47401;SDS011;33155;48.370;-3.750;2022-09-13T15:48:53;6.00;;;3.40;;
47401;SDS011;33155;48.370;-3.750;2022-09-13T15:51:20;3.67;;;3.13;;
47401;SDS011;33155;48.370;-3.750;2022-09-13T15:53:47;3.28;;;2.60;;
47401;SDS011;33155;48.370;-3.750;2022-09-13T15:56:14;4.90;;;2.95;;
47401;SDS011;33155;48.370;-3.750;2022-09-13T15:58:41;4.25;;;3.03;;
47401;SDS011;33155;48.370;-3.750;2022-09-13T16:01:08;4.15;;;3.22;;
47401;SDS011;33155;48.370;-3.750;2022-09-13T16:03:36;9.90;;;4.28;;
47401;SDS011;33155;48.370;-3.750;2022-09-13T16:06:03;4.82;;;3.97;;
47401;SDS011;33155;48.370;-3.750;2022-09-13T16:08:29;9.00;;;4.20;;
47401;SDS011;33155;48.370;-3.750;2022-09-13T16:10:54;5.47;;;3.90;;
47401;SDS011;33155;48.370;-3.750;2022-09-13T16:13:20;6.60;;;3.97;;
47401;SDS011;33155;48.370;-3.750;2022-09-13T16:15:45;4.50;;;3.78;;
47401;SDS011;33155;48.370;-3.750;2022-09-13T16:18:10;5.95;;;4.05;;
47401;SDS011;33155;48.370;-3.750;2022-09-13T16:20:37;4.32;;;3.92;;
47401;SDS011;33155;48.370;-3.750;2022-09-13T16:23:02;3.50;;;3.20;;
47401;SDS011;33155;48.370;-3.750;2022-09-13T16:25:28;6.43;;;3.75;;
47401;SDS011;33155;48.370;-3.750;2022-09-13T16:27:54;3.90;;;3.50;;
47401;SDS011;33155;48.370;-3.750;2022-09-13T16:30:19;4.22;;;3.15;;
47401;SDS011;33155;48.370;-3.750;2022-09-13T16:32:46;3.38;;;3.00;;
47401;SDS011;33155;48.370;-3.750;2022-09-13T16:35:12;3.40;;;2.83;;
47401;SDS011;33155;48.370;-3.750;2022-09-13T16:37:38;4.43;;;2.70;;
47401;SDS011;33155;48.370;-3.750;2022-09-13T16:40:05;4.00;;;2.95;;
47401;SDS011;33155;48.370;-3.750;2022-09-13T16:42:31;3.58;;;3.10;;
47401;SDS011;33155;48.370;-3.750;2022-09-13T16:44:57;3.10;;;2.80;;
47401;SDS011;33155;48.370;-3.750;2022-09-13T16:47:23;2.70;;;2.50;;
47401;SDS011;33155;48.370;-3.750;2022-09-13T16:49:48;4.43;;;2.80;;
47401;SDS011;33155;48.370;-3.750;2022-09-13T16:52:14;2.65;;;2.45;;
47401;SDS011;33155;48.370;-3.750;2022-09-13T16:54:39;3.25;;;2.92;;
47401;SDS011;33155;48.370;-3.750;2022-09-13T16:57:06;3.60;;;3.00;;
47401;SDS011;33155;48.370;-3.750;2022-09-13T16:59:34;3.17;;;2.72;;
47401;SDS011;33155;48.370;-3.750;2022-09-13T17:02:00;2.60;;;2.40;;
47401;SDS011;33155;48.370;-3.750;2022-09-13T17:04:25;2.60;;;2.38;;
47401;SDS011;33155;48.370;-3.750;2022-09-13T17:06:51;2.53;;;2.22;;
47401;SDS011;33155;48.370;-3.750;2022-09-13T17:09:16;2.60;;;2.30;;
47401;SDS011;33155;48.370;-3.750;2022-09-13T17:11:42;2.20;;;2.00;;
47401;SDS011;33155;48.370;-3.750;2022-09-13T17:14:09;1.83;;;1.73;;
47401;SDS011;33155;48.370;-3.750;2022-09-13T17:16:37;1.85;;;1.67;;
47401;SDS011;33155;48.370;-3.750;2022-09-13T17:19:06;1.50;;;1.40;;
47401;SDS011;33155;48.370;-3.750;2022-09-13T17:21:34;1.50;;;1.40;;
47401;SDS011;33155;48.370;-3.750;2022-09-13T17:24:00;1.60;;;1.50;;
47401;SDS011;33155;48.370;-3.750;2022-09-13T17:26:26;1.20;;;1.10;;
47401;SDS011;33155;48.370;-3.750;2022-09-13T17:28:51;1.67;;;1.30;;
47401;SDS011;33155;48.370;-3.750;2022-09-13T17:31:17;1.17;;;1.08;;
47401;SDS011;33155;48.370;-3.750;2022-09-13T17:33:43;1.25;;;1.13;;
47401;SDS011;33155;48.370;-3.750;2022-09-13T17:36:10;1.48;;;0.93;;
47401;SDS011;33155;48.370;-3.750;2022-09-13T17:38:37;2.05;;;1.48;;
47401;SDS011;33155;48.370;-3.750;2022-09-13T17:41:07;1.20;;;1.10;;
47401;SDS011;33155;48.370;-3.750;2022-09-13T17:43:34;1.20;;;1.05;;
47401;SDS011;33155;48.370;-3.750;2022-09-13T17:46:04;1.77;;;1.20;;
47401;SDS011;33155;48.370;-3.750;2022-09-13T17:48:34;1.17;;;1.00;;
47401;SDS011;33155;48.370;-3.750;2022-09-13T17:51:02;1.10;;;1.00;;
47401;SDS011;33155;48.370;-3.750;2022-09-13T17:53:29;0.95;;;0.95;;
47401;SDS011;33155;48.370;-3.750;2022-09-13T17:55:55;2.60;;;1.40;;
47401;SDS011;33155;48.370;-3.750;2022-09-13T17:58:22;1.05;;;0.98;;
47401;SDS011;33155;48.370;-3.750;2022-09-13T18:00:48;1.10;;;1.00;;
47401;SDS011;33155;48.370;-3.750;2022-09-13T18:03:14;0.82;;;0.80;;
47401;SDS011;33155;48.370;-3.750;2022-09-13T18:05:40;1.52;;;0.90;;
47401;SDS011;33155;48.370;-3.750;2022-09-13T18:08:05;0.82;;;0.82;;
47401;SDS011;33155;48.370;-3.750;2022-09-13T18:10:31;1.25;;;1.00;;
47401;SDS011;33155;48.370;-3.750;2022-09-13T18:12:56;0.85;;;0.80;;
47401;SDS011;33155;48.370;-3.750;2022-09-13T18:15:22;0.73;;;0.73;;
47401;SDS011;33155;48.370;-3.750;2022-09-13T18:17:47;0.70;;;0.70;;
47401;SDS011;33155;48.370;-3.750;2022-09-13T18:20:13;0.80;;;0.77;;
47401;SDS011;33155;48.370;-3.750;2022-09-13T18:22:38;0.68;;;0.68;;
47401;SDS011;33155;48.370;-3.750;2022-09-13T18:25:04;0.90;;;0.90;;
47401;SDS011;33155;48.370;-3.750;2022-09-13T18:27:30;0.55;;;0.52;;
47401;SDS011;33155;48.370;-3.750;2022-09-13T18:29:56;1.13;;;0.90;;
47401;SDS011;33155;48.370;-3.750;2022-09-13T18:32:22;2.10;;;0.80;;
47401;SDS011;33155;48.370;-3.750;2022-09-13T18:34:47;0.98;;;0.80;;
47401;SDS011;33155;48.370;-3.750;2022-09-13T18:37:13;0.80;;;0.70;;
47401;SDS011;33155;48.370;-3.750;2022-09-13T18:39:38;0.65;;;0.65;;
47401;SDS011;33155;48.370;-3.750;2022-09-13T18:42:04;1.63;;;0.77;;
47401;SDS011;33155;48.370;-3.750;2022-09-13T18:44:30;0.50;;;0.50;;
47401;SDS011;33155;48.370;-3.750;2022-09-13T18:46:57;0.98;;;0.77;;
47401;SDS011;33155;48.370;-3.750;2022-09-13T18:49:24;1.73;;;0.80;;
47401;SDS011;33155;48.370;-3.750;2022-09-13T18:51:50;2.03;;;0.70;;
47401;SDS011;33155;48.370;-3.750;2022-09-13T18:54:16;0.63;;;0.63;;
47401;SDS011;33155;48.370;-3.750;2022-09-13T18:56:46;1.00;;;0.70;;
47401;SDS011;33155;48.370;-3.750;2022-09-13T18:59:11;2.40;;;0.82;;
47401;SDS011;33155;48.370;-3.750;2022-09-13T19:01:38;0.70;;;0.70;;
47401;SDS011;33155;48.370;-3.750;2022-09-13T19:04:06;0.70;;;0.47;;
47401;SDS011;33155;48.370;-3.750;2022-09-13T19:06:39;2.08;;;0.80;;
47401;SDS011;33155;48.370;-3.750;2022-09-13T19:09:06;0.60;;;0.60;;
47401;SDS011;33155;48.370;-3.750;2022-09-13T19:11:40;0.90;;;0.70;;
47401;SDS011;33155;48.370;-3.750;2022-09-13T19:14:07;0.75;;;0.65;;
47401;SDS011;33155;48.370;-3.750;2022-09-13T19:16:33;0.75;;;0.75;;
47401;SDS011;33155;48.370;-3.750;2022-09-13T19:18:59;2.67;;;0.70;;
47401;SDS011;33155;48.370;-3.750;2022-09-13T19:21:26;0.90;;;0.80;;
47401;SDS011;33155;48.370;-3.750;2022-09-13T19:23:55;0.55;;;0.55;;
47401;SDS011;33155;48.370;-3.750;2022-09-13T19:26:35;0.82;;;0.68;;
47401;SDS011;33155;48.370;-3.750;2022-09-13T19:29:02;1.70;;;0.77;;
47401;SDS011;33155;48.370;-3.750;2022-09-13T19:31:31;0.93;;;0.63;;
47401;SDS011;33155;48.370;-3.750;2022-09-13T19:33:58;0.80;;;0.70;;
47401;SDS011;33155;48.370;-3.750;2022-09-13T19:36:26;1.17;;;0.68;;
47401;SDS011;33155;48.370;-3.750;2022-09-13T19:38:53;1.33;;;0.93;;
47401;SDS011;33155;48.370;-3.750;2022-09-13T19:41:21;0.70;;;0.70;;
47401;SDS011;33155;48.370;-3.750;2022-09-13T19:43:48;0.75;;;0.73;;
47401;SDS011;33155;48.370;-3.750;2022-09-13T19:46:15;1.20;;;1.00;;
47401;SDS011;33155;48.370;-3.750;2022-09-13T19:48:44;0.73;;;0.60;;
47401;SDS011;33155;48.370;-3.750;2022-09-13T19:51:12;0.60;;;0.60;;
47401;SDS011;33155;48.370;-3.750;2022-09-13T19:53:49;0.93;;;0.70;;
47401;SDS011;33155;48.370;-3.750;2022-09-13T19:56:20;0.70;;;0.70;;
47401;SDS011;33155;48.370;-3.750;2022-09-13T19:58:48;2.00;;;1.20;;
